KPBI/PBI METAR and TAF weather

Enter ICAO airport designator
Station Type Date Time Source
KPBI METAR 2019/07/17 17:53 UTC NOAA

KPBI 171753Z 09010KT 10SM SCT034 SCT045 BKN230 33/22 A3013 RMK AO2 LTG DSNT NW SLP204 CB DSNT SW NW T03280217 10328 20289 56005 $


Station Type Date Time Source
KPBI Decoded METAR 2019/07/17 17:53 UTC NOAA

PALM BEACH INTERNATIONAL, FL, United States (KPBI) 26-41N 80-06W 6M
Jul 17, 2019 - 01:53 PM EDT / 2019.07.17 1753 UTC
Wind: from the E (090 degrees) at 12 MPH (10 KT):0
Visibility: 10 mile(s):0
Sky conditions: mostly cloudy
Weather: Cumulonimbus clouds, lightning observed
Temperature: 91.0 F (32.8 C)
Heat index: 97.5 F (36.4 C):1
Dew Point: 71.1 F (21.7 C)
Relative Humidity: 52%
Pressure (altimeter): 30.13 in. Hg (1020 hPa)
Pressure tendency: 0.01 inches (0.5 hPa) lower than three hours ago
ob: KPBI 171753Z 09010KT 10SM SCT034 SCT045 BKN230 33/22 A3013 RMK AO2 LTG DSNT NW SLP204 CB DSNT SW NW T03280217 10328 20289 56005
cycle: 18

Station Type Date Time Source
KPBI TAF 2019/07/17 18:24 UTC NOAA

TAF KPBI 171721Z 1718/1818 12010KT P6SM SCT030 SCT060
FM180000 12005KT P6SM FEW025 SCT250
FM181400 13010KT P6SM SCT035 SCT250

Example: see airport list